sensor_id;sensor_type;location;lat;lon;timestamp;pressure;altitude;pressure_sealevel;temperature;humidity
79639;BME280;69114;49.108;8.280;2023-04-24T00:02:09;99399.22;;;9.08;87.81
79639;BME280;69114;49.108;8.280;2023-04-24T00:04:37;99392.19;;;9.19;87.48
79639;BME280;69114;49.108;8.280;2023-04-24T00:07:06;99396.91;;;9.18;86.97
79639;BME280;69114;49.108;8.280;2023-04-24T00:09:32;99387.59;;;9.14;87.17
79639;BME280;69114;49.108;8.280;2023-04-24T00:11:57;99389.56;;;9.22;86.75
79639;BME280;69114;49.108;8.280;2023-04-24T00:14:23;99391.69;;;9.34;86.07
79639;BME280;69114;49.108;8.280;2023-04-24T00:16:48;99387.63;;;9.40;85.48
79639;BME280;69114;49.108;8.280;2023-04-24T00:19:13;99376.00;;;9.38;85.96
79639;BME280;69114;49.108;8.280;2023-04-24T00:21:40;99370.09;;;9.40;86.35
79639;BME280;69114;49.108;8.280;2023-04-24T00:24:06;99369.63;;;9.38;85.58
79639;BME280;69114;49.108;8.280;2023-04-24T00:26:31;99367.81;;;9.33;86.20
79639;BME280;69114;49.108;8.280;2023-04-24T00:28:57;99367.50;;;9.26;86.29
79639;BME280;69114;49.108;8.280;2023-04-24T00:31:22;99367.19;;;9.28;86.59
79639;BME280;69114;49.108;8.280;2023-04-24T00:33:47;99356.38;;;9.35;85.32
79639;BME280;69114;49.108;8.280;2023-04-24T00:36:13;99369.31;;;9.31;86.19
79639;BME280;69114;49.108;8.280;2023-04-24T00:38:38;99375.00;;;9.26;86.41
79639;BME280;69114;49.108;8.280;2023-04-24T00:41:04;99381.38;;;9.35;86.61
79639;BME280;69114;49.108;8.280;2023-04-24T00:43:29;99369.16;;;9.27;86.25
79639;BME280;69114;49.108;8.280;2023-04-24T00:45:55;99377.78;;;9.26;86.90
79639;BME280;69114;49.108;8.280;2023-04-24T00:48:21;99375.34;;;9.24;86.70
79639;BME280;69114;49.108;8.280;2023-04-24T00:50:46;99386.47;;;9.24;86.35
79639;BME280;69114;49.108;8.280;2023-04-24T00:53:11;99383.22;;;9.31;86.12
79639;BME280;69114;49.108;8.280;2023-04-24T00:55:37;99385.81;;;9.27;86.37
79639;BME280;69114;49.108;8.280;2023-04-24T00:58:02;99382.56;;;9.16;86.21
79639;BME280;69114;49.108;8.280;2023-04-24T01:00:28;99382.03;;;9.14;87.02
79639;BME280;69114;49.108;8.280;2023-04-24T01:02:54;99375.84;;;9.17;86.57
79639;BME280;69114;49.108;8.280;2023-04-24T01:05:20;99371.28;;;9.21;86.47
79639;BME280;69114;49.108;8.280;2023-04-24T01:07:46;99376.47;;;9.14;86.19
79639;BME280;69114;49.108;8.280;2023-04-24T01:10:14;99375.84;;;9.17;86.24
79639;BME280;69114;49.108;8.280;2023-04-24T01:12:40;99379.59;;;9.13;86.34
79639;BME280;69114;49.108;8.280;2023-04-24T01:15:06;99372.56;;;9.15;86.49
79639;BME280;69114;49.108;8.280;2023-04-24T01:17:33;99373.88;;;9.27;86.00
79639;BME280;69114;49.108;8.280;2023-04-24T01:19:59;99374.38;;;9.29;85.42
79639;BME280;69114;49.108;8.280;2023-04-24T01:22:25;99380.56;;;9.34;85.79
79639;BME280;69114;49.108;8.280;2023-04-24T01:24:51;99374.03;;;9.30;86.20
79639;BME280;69114;49.108;8.280;2023-04-24T01:27:17;99384.00;;;9.40;85.27
79639;BME280;69114;49.108;8.280;2023-04-24T01:29:42;99375.53;;;9.36;86.09
79639;BME280;69114;49.108;8.280;2023-04-24T01:32:07;99382.22;;;9.35;85.98
79639;BME280;69114;49.108;8.280;2023-04-24T01:34:34;99373.56;;;9.37;85.72
79639;BME280;69114;49.108;8.280;2023-04-24T01:37:00;99377.78;;;9.43;85.45
79639;BME280;69114;49.108;8.280;2023-04-24T01:39:25;99374.19;;;9.51;85.41
79639;BME280;69114;49.108;8.280;2023-04-24T01:41:53;99367.66;;;9.47;85.58
79639;BME280;69114;49.108;8.280;2023-04-24T01:44:19;99375.53;;;9.45;86.21
79639;BME280;69114;49.108;8.280;2023-04-24T01:46:44;99372.06;;;9.39;87.33
79639;BME280;69114;49.108;8.280;2023-04-24T01:49:10;99366.38;;;9.36;86.38
79639;BME280;69114;49.108;8.280;2023-04-24T01:51:36;99370.25;;;9.35;86.04
79639;BME280;69114;49.108;8.280;2023-04-24T01:54:01;99367.00;;;9.33;85.80
79639;BME280;69114;49.108;8.280;2023-04-24T01:56:28;99363.91;;;9.34;86.42
79639;BME280;69114;49.108;8.280;2023-04-24T01:58:54;99358.50;;;9.29;86.72
79639;BME280;69114;49.108;8.280;2023-04-24T02:01:20;99359.31;;;9.30;86.30
79639;BME280;69114;49.108;8.280;2023-04-24T02:03:46;99364.41;;;9.28;85.98
79639;BME280;69114;49.108;8.280;2023-04-24T02:06:11;99362.09;;;9.30;86.46
79639;BME280;69114;49.108;8.280;2023-04-24T02:08:37;99352.13;;;9.29;86.63
79639;BME280;69114;49.108;8.280;2023-04-24T02:11:02;99350.81;;;9.35;86.48
79639;BME280;69114;49.108;8.280;2023-04-24T02:13:28;99358.84;;;9.45;85.32
79639;BME280;69114;49.108;8.280;2023-04-24T02:15:53;99363.56;;;9.44;85.53
79639;BME280;69114;49.108;8.280;2023-04-24T02:18:19;99363.72;;;9.39;85.72
79639;BME280;69114;49.108;8.280;2023-04-24T02:20:45;99359.50;;;9.42;85.74
79639;BME280;69114;49.108;8.280;2023-04-24T02:23:10;99356.06;;;9.36;86.39
79639;BME280;69114;49.108;8.280;2023-04-24T02:25:35;99356.72;;;9.33;86.58
79639;BME280;69114;49.108;8.280;2023-04-24T02:28:00;99353.75;;;9.38;86.14
79639;BME280;69114;49.108;8.280;2023-04-24T02:30:26;99368.31;;;9.44;86.04
79639;BME280;69114;49.108;8.280;2023-04-24T02:32:51;99367.47;;;9.52;86.35
79639;BME280;69114;49.108;8.280;2023-04-24T02:35:17;99386.94;;;9.52;86.84
79639;BME280;69114;49.108;8.280;2023-04-24T02:37:42;99388.09;;;9.42;88.26
79639;BME280;69114;49.108;8.280;2023-04-24T02:40:08;99395.28;;;9.35;88.76
79639;BME280;69114;49.108;8.280;2023-04-24T02:42:34;99396.75;;;9.23;90.61
79639;BME280;69114;49.108;8.280;2023-04-24T02:45:00;99402.16;;;9.20;90.92
79639;BME280;69114;49.108;8.280;2023-04-24T02:47:25;99400.34;;;9.15;91.45
79639;BME280;69114;49.108;8.280;2023-04-24T02:49:50;99401.81;;;9.13;92.22
79639;BME280;69114;49.108;8.280;2023-04-24T02:52:16;99409.19;;;9.17;92.18
79639;BME280;69114;49.108;8.280;2023-04-24T02:54:42;99414.75;;;9.17;92.24
79639;BME280;69114;49.108;8.280;2023-04-24T02:57:08;99430.59;;;9.17;91.87
79639;BME280;69114;49.108;8.280;2023-04-24T02:59:33;99485.84;;;9.18;91.66
79639;BME280;69114;49.108;8.280;2023-04-24T03:01:59;99462.50;;;8.40;87.73
79639;BME280;69114;49.108;8.280;2023-04-24T03:04:24;99449.78;;;8.16;89.79
79639;BME280;69114;49.108;8.280;2023-04-24T03:06:51;99445.66;;;8.05;90.43
79639;BME280;69114;49.108;8.280;2023-04-24T03:09:18;99450.03;;;7.98;90.79
79639;BME280;69114;49.108;8.280;2023-04-24T03:11:43;99455.06;;;7.95;87.26
79639;BME280;69114;49.108;8.280;2023-04-24T03:14:09;99446.53;;;7.92;89.58
79639;BME280;69114;49.108;8.280;2023-04-24T03:16:34;99440.00;;;7.88;89.74
79639;BME280;69114;49.108;8.280;2023-04-24T03:19:00;99457.91;;;7.82;89.65
79639;BME280;69114;49.108;8.280;2023-04-24T03:21:25;99445.19;;;7.81;88.97
79639;BME280;69114;49.108;8.280;2023-04-24T03:23:51;99430.69;;;7.84;88.94
79639;BME280;69114;49.108;8.280;2023-04-24T03:26:17;99432.44;;;7.80;89.39
79639;BME280;69114;49.108;8.280;2023-04-24T03:28:42;99425.78;;;7.81;87.36
79639;BME280;69114;49.108;8.280;2023-04-24T03:31:07;99423.44;;;7.74;89.47
79639;BME280;69114;49.108;8.280;2023-04-24T03:33:33;99438.25;;;7.69;90.36
79639;BME280;69114;49.108;8.280;2023-04-24T03:35:58;99452.84;;;7.61;90.64
79639;BME280;69114;49.108;8.280;2023-04-24T03:38:24;99452.97;;;7.56;90.34
79639;BME280;69114;49.108;8.280;2023-04-24T03:40:49;99457.19;;;7.54;90.94
79639;BME280;69114;49.108;8.280;2023-04-24T03:43:14;99451.56;;;7.45;91.40
79639;BME280;69114;49.108;8.280;2023-04-24T03:45:40;99459.50;;;7.38;91.59
79639;BME280;69114;49.108;8.280;2023-04-24T03:48:05;99457.19;;;7.31;92.31
79639;BME280;69114;49.108;8.280;2023-04-24T03:50:31;99465.91;;;7.25;92.36
79639;BME280;69114;49.108;8.280;2023-04-24T03:52:56;99472.47;;;7.15;93.30
79639;BME280;69114;49.108;8.280;2023-04-24T03:55:21;99467.88;;;7.10;93.61
79639;BME280;69114;49.108;8.280;2023-04-24T03:57:47;99477.19;;;7.14;93.27
79639;BME280;69114;49.108;8.280;2023-04-24T04:00:12;99475.56;;;7.13;93.01
79639;BME280;69114;49.108;8.280;2023-04-24T04:02:38;99475.38;;;7.10;92.99
79639;BME280;69114;49.108;8.280;2023-04-24T04:05:03;99477.19;;;7.14;92.11
79639;BME280;69114;49.108;8.280;2023-04-24T04:07:29;99496.59;;;7.14;91.70
79639;BME280;69114;49.108;8.280;2023-04-24T04:09:55;99488.06;;;7.11;93.00
79639;BME280;69114;49.108;8.280;2023-04-24T04:12:20;99495.25;;;7.12;92.27
79639;BME280;69114;49.108;8.280;2023-04-24T04:14:45;99509.84;;;7.04;93.25
79639;BME280;69114;49.108;8.280;2023-04-24T04:17:11;99517.44;;;6.98;93.38
79639;BME280;69114;49.108;8.280;2023-04-24T04:19:36;99512.91;;;7.02;94.55
79639;BME280;69114;49.108;8.280;2023-04-24T04:22:02;99511.69;;;6.95;93.42
79639;BME280;69114;49.108;8.280;2023-04-24T04:24:27;99527.28;;;6.90;93.28
79639;BME280;69114;49.108;8.280;2023-04-24T04:26:53;99525.94;;;6.88;93.01
79639;BME280;69114;49.108;8.280;2023-04-24T04:29:22;99524.38;;;6.82;93.38
79639;BME280;69114;49.108;8.280;2023-04-24T04:31:47;99539.97;;;6.78;92.65
79639;BME280;69114;49.108;8.280;2023-04-24T04:34:13;99538.66;;;6.75;93.09
79639;BME280;69114;49.108;8.280;2023-04-24T04:36:39;99549.41;;;6.77;92.35
79639;BME280;69114;49.108;8.280;2023-04-24T04:39:06;99548.59;;;6.76;92.19
79639;BME280;69114;49.108;8.280;2023-04-24T04:41:31;99549.72;;;6.75;92.33
79639;BME280;69114;49.108;8.280;2023-04-24T04:43:57;99547.56;;;6.72;92.40
79639;BME280;69114;49.108;8.280;2023-04-24T04:48:59;99554.13;;;6.76;91.12
79639;BME280;69114;49.108;8.280;2023-04-24T04:51:25;99553.22;;;6.81;91.49
79639;BME280;69114;49.108;8.280;2023-04-24T04:53:50;99560.91;;;6.84;91.54
79639;BME280;69114;49.108;8.280;2023-04-24T04:56:15;99553.91;;;6.86;91.35
79639;BME280;69114;49.108;8.280;2023-04-24T04:58:40;99555.78;;;6.91;92.17
79639;BME280;69114;49.108;8.280;2023-04-24T05:01:06;99564.78;;;6.97;91.66
79639;BME280;69114;49.108;8.280;2023-04-24T05:03:32;99565.22;;;7.04;91.23
79639;BME280;69114;49.108;8.280;2023-04-24T05:05:57;99563.47;;;7.08;91.68
79639;BME280;69114;49.108;8.280;2023-04-24T05:08:23;99563.56;;;7.16;91.35
79639;BME280;69114;49.108;8.280;2023-04-24T05:10:48;99571.16;;;7.25;91.02
79639;BME280;69114;49.108;8.280;2023-04-24T05:13:14;99585.81;;;7.39;90.70
79639;BME280;69114;49.108;8.280;2023-04-24T05:15:39;99579.56;;;7.47;90.23
79639;BME280;69114;49.108;8.280;2023-04-24T05:18:04;99582.59;;;7.59;89.95
79639;BME280;69114;49.108;8.280;2023-04-24T05:20:30;99586.91;;;7.65;89.78
79639;BME280;69114;49.108;8.280;2023-04-24T05:22:55;99586.28;;;7.68;88.71
79639;BME280;69114;49.108;8.280;2023-04-24T05:25:21;99590.38;;;7.71;88.45
79639;BME280;69114;49.108;8.280;2023-04-24T05:27:46;99597.25;;;7.74;88.01
79639;BME280;69114;49.108;8.280;2023-04-24T05:30:12;99596.94;;;7.75;89.21
79639;BME280;69114;49.108;8.280;2023-04-24T05:32:37;99598.09;;;7.74;87.65
79639;BME280;69114;49.108;8.280;2023-04-24T05:35:03;99595.81;;;7.76;87.39
79639;BME280;69114;49.108;8.280;2023-04-24T05:37:28;99599.41;;;7.77;87.98
79639;BME280;69114;49.108;8.280;2023-04-24T05:39:54;99597.97;;;7.79;89.88
79639;BME280;69114;49.108;8.280;2023-04-24T05:42:19;99607.94;;;7.80;89.56
79639;BME280;69114;49.108;8.280;2023-04-24T05:44:45;99609.56;;;7.81;89.93
79639;BME280;69114;49.108;8.280;2023-04-24T05:47:10;99607.22;;;7.75;88.76
79639;BME280;69114;49.108;8.280;2023-04-24T05:49:36;99607.03;;;7.71;90.36
79639;BME280;69114;49.108;8.280;2023-04-24T05:52:01;99616.25;;;7.66;88.75
79639;BME280;69114;49.108;8.280;2023-04-24T05:54:29;99612.78;;;7.61;90.28
79639;BME280;69114;49.108;8.280;2023-04-24T05:56:54;99617.50;;;7.60;90.06
79639;BME280;69114;49.108;8.280;2023-04-24T05:59:20;99625.94;;;7.55;90.64
79639;BME280;69114;49.108;8.280;2023-04-24T06:01:46;99629.63;;;7.64;89.53
79639;BME280;69114;49.108;8.280;2023-04-24T06:06:46;99627.34;;;7.66;90.06
79639;BME280;69114;49.108;8.280;2023-04-24T06:09:15;99631.66;;;7.73;88.92
79639;BME280;69114;49.108;8.280;2023-04-24T06:11:41;99645.59;;;7.81;89.16
79639;BME280;69114;49.108;8.280;2023-04-24T06:14:07;99635.53;;;7.85;86.65
79639;BME280;69114;49.108;8.280;2023-04-24T06:16:33;99642.50;;;7.83;87.91
79639;BME280;69114;49.108;8.280;2023-04-24T06:18:58;99630.00;;;7.85;87.97
79639;BME280;69114;49.108;8.280;2023-04-24T06:21:23;99640.34;;;7.93;86.75
79639;BME280;69114;49.108;8.280;2023-04-24T06:23:49;99643.81;;;7.99;88.47
79639;BME280;69114;49.108;8.280;2023-04-24T06:26:14;99646.38;;;8.09;87.83
79639;BME280;69114;49.108;8.280;2023-04-24T06:28:40;99640.91;;;8.18;86.48
79639;BME280;69114;49.108;8.280;2023-04-24T06:31:05;99646.94;;;8.20;85.54
79639;BME280;69114;49.108;8.280;2023-04-24T06:33:30;99648.84;;;8.33;86.52
79639;BME280;69114;49.108;8.280;2023-04-24T06:35:56;99645.25;;;8.46;84.74
79639;BME280;69114;49.108;8.280;2023-04-24T06:38:21;99646.06;;;8.47;83.89
79639;BME280;69114;49.108;8.280;2023-04-24T06:40:46;99643.97;;;8.53;83.60
79639;BME280;69114;49.108;8.280;2023-04-24T06:43:12;99644.66;;;8.58;84.32
79639;BME280;69114;49.108;8.280;2023-04-24T06:45:38;99636.72;;;8.65;83.49
79639;BME280;69114;49.108;8.280;2023-04-24T06:48:04;99653.44;;;8.74;83.72
79639;BME280;69114;49.108;8.280;2023-04-24T06:50:30;99653.94;;;8.76;83.97
79639;BME280;69114;49.108;8.280;2023-04-24T06:52:55;99661.69;;;8.88;82.49
79639;BME280;69114;49.108;8.280;2023-04-24T06:55:21;99663.63;;;8.87;81.47
79639;BME280;69114;49.108;8.280;2023-04-24T06:57:46;99671.28;;;8.82;80.80
79639;BME280;69114;49.108;8.280;2023-04-24T07:00:12;99666.25;;;8.84;80.74
79639;BME280;69114;49.108;8.280;2023-04-24T07:02:37;99664.69;;;9.00;80.58
79639;BME280;69114;49.108;8.280;2023-04-24T07:05:04;99668.88;;;9.20;80.51
79639;BME280;69114;49.108;8.280;2023-04-24T07:07:29;99670.06;;;9.28;77.37
79639;BME280;69114;49.108;8.280;2023-04-24T07:09:56;99668.50;;;9.44;78.21
79639;BME280;69114;49.108;8.280;2023-04-24T07:12:21;99672.69;;;9.72;75.51
79639;BME280;69114;49.108;8.280;2023-04-24T07:14:47;99669.16;;;9.89;74.85
79639;BME280;69114;49.108;8.280;2023-04-24T07:17:13;99671.94;;;9.98;73.36
79639;BME280;69114;49.108;8.280;2023-04-24T07:19:38;99677.16;;;9.91;70.99
79639;BME280;69114;49.108;8.280;2023-04-24T07:22:03;99679.28;;;9.85;72.74
79639;BME280;69114;49.108;8.280;2023-04-24T07:24:30;99688.38;;;9.68;70.98
79639;BME280;69114;49.108;8.280;2023-04-24T07:26:57;99690.28;;;9.51;72.95
79639;BME280;69114;49.108;8.280;2023-04-24T07:29:22;99695.66;;;9.47;75.97
79639;BME280;69114;49.108;8.280;2023-04-24T07:31:48;99692.03;;;9.38;76.57
79639;BME280;69114;49.108;8.280;2023-04-24T07:34:13;99691.84;;;9.34;75.71
79639;BME280;69114;49.108;8.280;2023-04-24T07:36:38;99689.09;;;9.43;75.15
79639;BME280;69114;49.108;8.280;2023-04-24T07:39:04;99696.44;;;9.39;74.94
79639;BME280;69114;49.108;8.280;2023-04-24T07:41:31;99703.44;;;9.67;72.86
79639;BME280;69114;49.108;8.280;2023-04-24T07:43:56;99712.47;;;9.82;69.69
79639;BME280;69114;49.108;8.280;2023-04-24T07:46:22;99706.44;;;9.80;68.89
79639;BME280;69114;49.108;8.280;2023-04-24T07:48:48;99703.13;;;9.69;70.58
79639;BME280;69114;49.108;8.280;2023-04-24T07:51:14;99707.09;;;9.85;70.58
79639;BME280;69114;49.108;8.280;2023-04-24T07:53:40;99695.53;;;10.09;71.63
79639;BME280;69114;49.108;8.280;2023-04-24T07:56:06;99714.00;;;10.05;69.25
79639;BME280;69114;49.108;8.280;2023-04-24T07:58:31;99709.84;;;10.42;70.45
79639;BME280;69114;49.108;8.280;2023-04-24T08:00:56;99717.41;;;10.59;68.98
79639;BME280;69114;49.108;8.280;2023-04-24T08:03:22;99708.69;;;10.87;66.69
79639;BME280;69114;49.108;8.280;2023-04-24T08:05:47;99719.84;;;10.69;67.26
79639;BME280;69114;49.108;8.280;2023-04-24T08:08:13;99713.94;;;10.88;65.80
79639;BME280;69114;49.108;8.280;2023-04-24T08:10:38;99722.75;;;11.16;66.49
79639;BME280;69114;49.108;8.280;2023-04-24T08:13:03;99730.59;;;11.32;62.75
79639;BME280;69114;49.108;8.280;2023-04-24T08:15:29;99718.22;;;11.59;63.20
79639;BME280;69114;49.108;8.280;2023-04-24T08:17:54;99734.81;;;11.38;62.86
79639;BME280;69114;49.108;8.280;2023-04-24T08:20:20;99744.44;;;10.85;63.28
79639;BME280;69114;49.108;8.280;2023-04-24T08:22:45;99739.66;;;10.94;64.01
79639;BME280;69114;49.108;8.280;2023-04-24T08:25:12;99744.59;;;10.62;62.34
79639;BME280;69114;49.108;8.280;2023-04-24T08:27:37;99758.34;;;10.67;64.53
79639;BME280;69114;49.108;8.280;2023-04-24T08:30:04;99760.78;;;10.51;65.94
79639;BME280;69114;49.108;8.280;2023-04-24T08:32:30;99758.06;;;10.20;65.40
79639;BME280;69114;49.108;8.280;2023-04-24T08:34:56;99770.59;;;10.32;65.19
79639;BME280;69114;49.108;8.280;2023-04-24T08:37:22;99781.75;;;10.49;64.55
79639;BME280;69114;49.108;8.280;2023-04-24T08:39:49;99774.22;;;10.41;65.84
79639;BME280;69114;49.108;8.280;2023-04-24T08:42:15;99768.66;;;10.41;63.53
79639;BME280;69114;49.108;8.280;2023-04-24T08:44:42;99761.97;;;11.11;63.56
79639;BME280;69114;49.108;8.280;2023-04-24T08:47:08;99767.81;;;11.27;61.07
79639;BME280;69114;49.108;8.280;2023-04-24T08:49:33;99774.41;;;11.05;62.08
79639;BME280;69114;49.108;8.280;2023-04-24T08:52:01;99783.91;;;11.13;62.03
79639;BME280;69114;49.108;8.280;2023-04-24T08:54:28;99785.41;;;10.93;63.33
79639;BME280;69114;49.108;8.280;2023-04-24T08:56:59;99791.44;;;10.86;63.48
79639;BME280;69114;49.108;8.280;2023-04-24T08:59:27;99785.41;;;10.93;63.85
79639;BME280;69114;49.108;8.280;2023-04-24T09:01:54;99795.22;;;10.99;63.63
79639;BME280;69114;49.108;8.280;2023-04-24T09:04:20;99800.94;;;10.68;64.91
79639;BME280;69114;49.108;8.280;2023-04-24T09:06:48;99820.28;;;10.56;63.40
79639;BME280;69114;49.108;8.280;2023-04-24T09:09:16;99820.91;;;10.52;64.87
79639;BME280;69114;49.108;8.280;2023-04-24T09:11:42;99814.19;;;10.45;63.86
79639;BME280;69114;49.108;8.280;2023-04-24T09:14:09;99822.00;;;10.25;64.01
79639;BME280;69114;49.108;8.280;2023-04-24T09:16:35;99825.16;;;10.10;64.50
79639;BME280;69114;49.108;8.280;2023-04-24T09:19:00;99822.34;;;9.93;64.13
79639;BME280;69114;49.108;8.280;2023-04-24T09:21:32;99828.44;;;9.72;64.37
79639;BME280;69114;49.108;8.280;2023-04-24T09:24:03;99818.22;;;9.59;64.59
79639;BME280;69114;49.108;8.280;2023-04-24T09:26:30;99829.78;;;9.53;65.46
79639;BME280;69114;49.108;8.280;2023-04-24T09:28:57;99840.34;;;9.64;64.21
79639;BME280;69114;49.108;8.280;2023-04-24T09:31:22;99823.38;;;9.74;65.69
79639;BME280;69114;49.108;8.280;2023-04-24T09:33:56;99839.50;;;9.95;63.38
79639;BME280;69114;49.108;8.280;2023-04-24T09:36:29;99829.38;;;9.99;63.09
79639;BME280;69114;49.108;8.280;2023-04-24T09:39:01;99838.91;;;10.07;63.49
79639;BME280;69114;49.108;8.280;2023-04-24T09:41:27;99830.44;;;10.12;62.22
79639;BME280;69114;49.108;8.280;2023-04-24T09:43:54;99833.75;;;10.22;62.62
79639;BME280;69114;49.108;8.280;2023-04-24T09:46:20;99839.88;;;10.42;60.82
79639;BME280;69114;49.108;8.280;2023-04-24T09:48:47;99853.56;;;10.95;59.76
79639;BME280;69114;49.108;8.280;2023-04-24T09:51:12;99848.84;;;11.05;59.66
79639;BME280;69114;49.108;8.280;2023-04-24T09:53:38;99839.00;;;10.98;59.09
79639;BME280;69114;49.108;8.280;2023-04-24T09:56:09;99835.22;;;10.86;58.83
79639;BME280;69114;49.108;8.280;2023-04-24T09:58:36;99839.31;;;10.80;60.22
79639;BME280;69114;49.108;8.280;2023-04-24T10:01:01;99840.91;;;10.63;59.79
79639;BME280;69114;49.108;8.280;2023-04-24T10:03:29;99853.09;;;10.28;59.21
79639;BME280;69114;49.108;8.280;2023-04-24T10:05:58;99856.28;;;10.12;60.35
79639;BME280;69114;49.108;8.280;2023-04-24T10:08:24;99847.56;;;10.05;61.98
79639;BME280;69114;49.108;8.280;2023-04-24T10:10:50;99853.56;;;9.90;61.54
79639;BME280;69114;49.108;8.280;2023-04-24T10:13:15;99860.53;;;9.79;62.78
79639;BME280;69114;49.108;8.280;2023-04-24T10:15:42;99865.50;;;9.59;67.63
79639;BME280;69114;49.108;8.280;2023-04-24T10:18:08;99861.66;;;9.46;67.56
79639;BME280;69114;49.108;8.280;2023-04-24T10:20:35;99866.81;;;9.39;66.85
79639;BME280;69114;49.108;8.280;2023-04-24T10:23:01;99871.41;;;9.44;66.75
79639;BME280;69114;49.108;8.280;2023-04-24T10:25:28;99879.97;;;9.47;66.10
79639;BME280;69114;49.108;8.280;2023-04-24T10:27:54;99887.00;;;9.45;67.22
79639;BME280;69114;49.108;8.280;2023-04-24T10:30:26;99884.31;;;9.40;69.70
79639;BME280;69114;49.108;8.280;2023-04-24T10:32:52;99876.41;;;9.33;71.64
79639;BME280;69114;49.108;8.280;2023-04-24T10:35:18;99885.72;;;9.51;70.59
79639;BME280;69114;49.108;8.280;2023-04-24T10:38:06;99892.31;;;9.86;71.24
79639;BME280;69114;49.108;8.280;2023-04-24T10:40:35;99893.63;;;10.11;68.59
79639;BME280;69114;49.108;8.280;2023-04-24T10:43:04;99898.25;;;10.56;67.69
79639;BME280;69114;49.108;8.280;2023-04-24T10:45:36;99884.38;;;10.82;65.78
79639;BME280;69114;49.108;8.280;2023-04-24T10:48:06;99894.34;;;10.65;63.08
79639;BME280;69114;49.108;8.280;2023-04-24T10:50:47;99886.34;;;10.90;64.21
79639;BME280;69114;49.108;8.280;2023-04-24T10:53:17;99895.38;;;10.78;62.39
79639;BME280;69114;49.108;8.280;2023-04-24T10:55:51;99897.34;;;10.95;63.32
79639;BME280;69114;49.108;8.280;2023-04-24T10:58:22;99891.44;;;10.79;61.75
79639;BME280;69114;49.108;8.280;2023-04-24T11:00:59;99897.63;;;10.76;60.47
79639;BME280;69114;49.108;8.280;2023-04-24T11:03:27;99903.69;;;10.69;60.94
79639;BME280;69114;49.108;8.280;2023-04-24T11:08:23;99901.84;;;10.56;59.94
79639;BME280;69114;49.108;8.280;2023-04-24T11:16:36;99934.81;;;9.56;68.57
79639;BME280;69114;49.108;8.280;2023-04-24T11:19:09;99926.88;;;9.27;69.42
79639;BME280;69114;49.108;8.280;2023-04-24T11:21:57;99938.50;;;9.29;70.20
79639;BME280;69114;49.108;8.280;2023-04-24T11:24:26;99932.53;;;9.35;69.43
79639;BME280;69114;49.108;8.280;2023-04-24T11:27:07;99933.09;;;9.46;69.98
79639;BME280;69114;49.108;8.280;2023-04-24T11:30:01;99941.38;;;9.82;69.60
79639;BME280;69114;49.108;8.280;2023-04-24T11:32:34;99948.09;;;10.35;68.90
79639;BME280;69114;49.108;8.280;2023-04-24T11:35:05;99926.91;;;11.22;64.60
79639;BME280;69114;49.108;8.280;2023-04-24T11:37:38;99925.69;;;12.18;60.87
79639;BME280;69114;49.108;8.280;2023-04-24T11:40:09;99920.72;;;13.30;57.01
79639;BME280;69114;49.108;8.280;2023-04-24T11:42:36;99925.72;;;13.78;55.96
79639;BME280;69114;49.108;8.280;2023-04-24T11:45:07;99935.75;;;13.79;54.99
79639;BME280;69114;49.108;8.280;2023-04-24T11:47:33;99919.50;;;14.39;51.04
79639;BME280;69114;49.108;8.280;2023-04-24T11:49:59;99925.28;;;13.35;52.46
79639;BME280;69114;49.108;8.280;2023-04-24T11:52:29;99928.22;;;13.59;52.27
79639;BME280;69114;49.108;8.280;2023-04-24T11:54:54;99932.66;;;14.26;50.00
79639;BME280;69114;49.108;8.280;2023-04-24T11:57:21;99932.66;;;14.26;51.17
79639;BME280;69114;49.108;8.280;2023-04-24T11:59:47;99926.50;;;14.45;48.72
79639;BME280;69114;49.108;8.280;2023-04-24T12:02:25;99921.41;;;14.84;49.41
79639;BME280;69114;49.108;8.280;2023-04-24T12:04:52;99923.31;;;15.45;46.16
79639;BME280;69114;49.108;8.280;2023-04-24T12:07:17;99922.97;;;16.46;45.79
79639;BME280;69114;49.108;8.280;2023-04-24T12:09:47;99921.16;;;14.52;49.61
79639;BME280;69114;49.108;8.280;2023-04-24T12:12:16;99927.38;;;14.82;48.63
79639;BME280;69114;49.108;8.280;2023-04-24T12:14:52;99922.91;;;14.57;48.74
79639;BME280;69114;49.108;8.280;2023-04-24T12:17:17;99930.69;;;13.40;50.46
79639;BME280;69114;49.108;8.280;2023-04-24T12:19:47;99930.63;;;12.60;52.25
79639;BME280;69114;49.108;8.280;2023-04-24T12:22:13;99918.41;;;13.02;52.42
79639;BME280;69114;49.108;8.280;2023-04-24T12:27:22;99923.31;;;13.05;50.63
79639;BME280;69114;49.108;8.280;2023-04-24T12:29:58;99917.09;;;13.00;49.34
79639;BME280;69114;49.108;8.280;2023-04-24T12:32:24;99928.81;;;12.93;48.76
79639;BME280;69114;49.108;8.280;2023-04-24T12:34:50;99915.06;;;13.09;49.51
79639;BME280;69114;49.108;8.280;2023-04-24T12:37:17;99919.97;;;13.12;48.75
79639;BME280;69114;49.108;8.280;2023-04-24T12:42:26;99916.50;;;12.86;49.63
79639;BME280;69114;49.108;8.280;2023-04-24T12:44:56;99918.84;;;12.84;48.94
79639;BME280;69114;49.108;8.280;2023-04-24T12:47:23;99917.03;;;12.49;50.08
79639;BME280;69114;49.108;8.280;2023-04-24T12:49:48;99915.91;;;12.80;50.18
79639;BME280;69114;49.108;8.280;2023-04-24T12:52:16;99907.59;;;13.22;50.35
79639;BME280;69114;49.108;8.280;2023-04-24T12:54:42;99914.78;;;13.02;52.09
79639;BME280;69114;49.108;8.280;2023-04-24T12:57:07;99903.50;;;13.40;51.23
79639;BME280;69114;49.108;8.280;2023-04-24T12:59:33;99911.34;;;13.68;50.74
79639;BME280;69114;49.108;8.280;2023-04-24T13:01:58;99920.09;;;12.95;51.61
79639;BME280;69114;49.108;8.280;2023-04-24T13:04:23;99915.09;;;13.51;50.36
79639;BME280;69114;49.108;8.280;2023-04-24T13:06:49;99904.81;;;13.97;48.44
79639;BME280;69114;49.108;8.280;2023-04-24T13:09:18;99932.88;;;13.34;50.01
79639;BME280;69114;49.108;8.280;2023-04-24T13:11:43;99923.94;;;13.11;49.93
79639;BME280;69114;49.108;8.280;2023-04-24T13:14:08;99933.09;;;13.62;48.80
79639;BME280;69114;49.108;8.280;2023-04-24T13:16:34;99916.41;;;13.03;49.92
79639;BME280;69114;49.108;8.280;2023-04-24T13:18:59;99921.59;;;13.43;48.88
79639;BME280;69114;49.108;8.280;2023-04-24T13:21:24;99923.84;;;12.99;49.87
79639;BME280;69114;49.108;8.280;2023-04-24T13:23:51;99927.28;;;12.75;50.50